• Join FlightAware (Why Join?)
  • Login
  • US Flag 
07:51PM EDT


 

Airport Tracker/Info


-or-


 

Live Flight TrackerFlight Track Log ✈ SWA864 ✈ 13-Jul-2013 ✈ KSLC - KLAS

Flight Track Log - Related Links

Times and Time Zones

All times are in EDT time to prevent confusion due to time zone crossing. See the SWA864 flight status page for this flight to view local times or setup timezone preferences in your user account.

Time Position Orientation Groundspeed Altitude Reporting Facility
EDT Latitude Longitude Course Direction KTS MPH feet Rate Location/Type
04:08PM 40.7019 -111.9611 179° South 204 235 6,800  Level Salt Lake Center
04:09PM 40.6286 -111.9606 180° South 255 293 9,800 2,700 Climbing Salt Lake Center
04:10PM 40.5328 -111.9539 177° South 285 328 13,000 1,380 Climbing Salt Lake Center
04:11PM 40.4539 -111.9519 179° South 282 325 13,000 600 Level Salt Lake Center
04:12PM 40.3756 -111.9467 177° South 284 327 14,300 2,160 Climbing Salt Lake Center
04:13PM 40.2961 -111.9442 179° South 287 330 17,500 2,760 Climbing Salt Lake Center
04:14PM 40.2142 -111.9483 182° South 296 341 20,000 1,920 Climbing Salt Lake Center
04:15PM 40.1261 -111.9619 187° South 328 377 21,500 1,620 Climbing Salt Lake Center
04:16PM 39.9986 -111.9803 186° South 386 444 23,400 2,040 Climbing Salt Lake Center
04:17PM 39.8889 -111.9972 187° South 398 458 25,700 1,980 Climbing Salt Lake Center
04:18PM 39.7761 -112.0150 187° South 410 472 27,500 1,920 Climbing Salt Lake Center
04:19PM 39.6628 -112.0297 186° South 411 473 29,700 2,040 Climbing Salt Lake Center
04:20PM 39.5619 -112.0900 205° Southwest 401 461 31,800 1,080 Climbing Salt Lake Center
04:21PM 39.4647 -112.1539 207° Southwest 393 452 32,000 60 Climbing Salt Lake Center
04:22PM 39.3711 -112.2228 210° Southwest 387 445 32,000  Level Salt Lake Center
04:23PM 39.2592 -112.3008 208° Southwest 380 437 32,000  Level Salt Lake Center
04:24PM 39.1722 -112.3578 207° Southwest 388 447 32,000  Level Salt Lake Center
04:25PM 39.0772 -112.4244 209° Southwest 389 448 32,000  Level Salt Lake Center
04:26PM 38.9611 -112.5044 208° Southwest 395 455 32,000  Level Salt Lake Center
04:27PM 38.8656 -112.5706 208° Southwest 392 451 32,000  Level Salt Lake Center
04:28PM 38.7689 -112.6369 208° Southwest 393 452 32,000  Level Salt Lake Center
04:29PM 38.6722 -112.7022 208° Southwest 394 453 32,000  Level Salt Lake Center
04:30PM 38.5753 -112.7678 208° Southwest 395 455 32,000  Level Salt Lake Center
04:31PM 38.4783 -112.8328 208° Southwest 394 453 32,000  Level Salt Lake Center
04:32PM 38.3808 -112.8978 208° Southwest 396 456 32,000  Level Salt Lake Center
04:33PM 38.2644 -112.9789 209° Southwest 398 458 32,000  Level Salt Lake Center
04:34PM 38.1669 -113.0444 208° Southwest 397 457 32,000  Level Salt Lake Center
04:36PM 38.0700 -113.1094 208° Southwest 397 457 32,000  Level Salt Lake Center
04:37PM 37.9722 -113.1747 208° Southwest 399 459 32,000  Level Salt Lake Center
04:38PM 37.8750 -113.2397 208° Southwest 399 459 32,000  Level Salt Lake Center
04:39PM 37.7783 -113.3036 208° Southwest 396 456 32,000  Level Salt Lake Center
04:40PM 37.6619 -113.3797 207° Southwest 395 455 32,000 -60 Level Salt Lake Center
04:41PM 37.5653 -113.4444 208° Southwest 396 456 31,900 -540 Descending Salt Lake Center
04:42PM 37.4689 -113.5044 206° Southwest 391 450 30,900 -1,020 Descending Salt Lake Center
04:43PM 37.3761 -113.5661 208° Southwest 383 441 29,800 -1,080 Descending Salt Lake Center
04:44PM 37.2850 -113.6258 208° Southwest 376 433 28,800 -1,020 Descending Salt Lake Center
04:45PM 37.1944 -113.6842 207° Southwest 369 425 27,800 -1,080 Descending Salt Lake Center
04:45PM 37.1225 -113.7314 208° Southwest 367 422 27,000 -1,080 Descending Los Angeles Center
04:46PM 37.0336 -113.7889 207° Southwest 363 418 26,000 -1,020 Descending Los Angeles Center
04:47PM 36.9461 -113.8461 208° Southwest 358 412 24,900 -1,020 Descending Los Angeles Center
04:49PM 36.8578 -113.9014 207° Southwest 355 409 24,000 -960 Descending Los Angeles Center
04:50PM 36.7717 -113.9564 207° Southwest 350 403 23,000 -1,800 Descending Los Angeles Center
04:51PM 36.6653 -114.0303 209° Southwest 362 417 20,300 -2,280 Descending Los Angeles Center
04:52PM 36.6067 -114.1303 234° Southwest 357 411 18,300 -1,920 Descending Los Angeles Center
04:53PM 36.5489 -114.2256 233° Southwest 349 402 16,400 -1,920 Descending Los Angeles Center
04:54PM 36.4822 -114.3128 226° Southwest 342 394 14,400 -2,040 Descending Los Angeles Center
04:54PM 36.4472 -114.3600 227° Southwest 337 388 13,300 -1,860 Descending Los Angeles Center
04:55PM 36.4192 -114.3964 226° Southwest 334 384 12,500 -1,200 Descending Los Angeles Center
04:55PM 36.3939 -114.4506 240° Southwest 322 371 12,100 -540 Descending Los Angeles Center
04:56PM 36.3681 -114.4825 225° Southwest 316 364 12,000 -120 Descending Los Angeles Center
04:57PM 36.2872 -114.5056 193° South 293 337 12,000 -360 Level Los Angeles Center
04:58PM 36.2508 -114.5744 237° Southwest 260 299 11,300 -1,020 Descending Los Angeles Center
04:59PM 36.2206 -114.6719 249° West 253 291 10,000 -1,200 Descending Los Angeles Center
05:00PM 36.1961 -114.7497 249° West 246 283 8,900 -1,200 Descending Los Angeles Center
05:01PM 36.1661 -114.8481 249° West 228 262 7,200 -1,260 Descending Los Angeles Center
05:02PM 36.1522 -114.8908 248° West 218 251 6,400 -660 Descending Los Angeles Center
05:03PM 36.1336 -114.9519 249° West 198 228 6,100 -660 Descending Los Angeles Center
05:04PM 36.1350 -115.0144 272° West 185 213 5,100 -1,260 Descending Los Angeles Center
05:05PM 36.1406 -115.0881 275° West 181 208 3,600 -1,200 Descending Los Angeles Center
05:06PM 36.1228 -115.1406 247° West 172 198 2,700 -780 Descending Los Angeles Center
05:07PM 36.0853 -115.1611 204° Southwest 158 182 2,100 -600 Descending Los Angeles Center
05:09PM 36.0801 -115.1523 219° Southwest  Level Estimated